sensor_id;sensor_type;location;lat;lon;timestamp;temperature;humidity
55642;DHT22;41509;53.108;6.100;2023-02-08T00:02:04;-0.60;99.90
55642;DHT22;41509;53.108;6.100;2023-02-08T00:04:29;-0.60;99.90
55642;DHT22;41509;53.108;6.100;2023-02-08T00:06:55;-0.60;99.90
55642;DHT22;41509;53.108;6.100;2023-02-08T00:09:20;-0.60;99.90
55642;DHT22;41509;53.108;6.100;2023-02-08T00:11:46;-0.60;99.90
55642;DHT22;41509;53.108;6.100;2023-02-08T00:14:12;-0.60;99.90
55642;DHT22;41509;53.108;6.100;2023-02-08T00:16:37;-0.70;99.90
55642;DHT22;41509;53.108;6.100;2023-02-08T00:19:03;-0.70;99.90
55642;DHT22;41509;53.108;6.100;2023-02-08T00:21:28;-0.70;99.90
55642;DHT22;41509;53.108;6.100;2023-02-08T00:23:54;-0.70;99.90
55642;DHT22;41509;53.108;6.100;2023-02-08T00:26:20;-0.70;99.90
55642;DHT22;41509;53.108;6.100;2023-02-08T00:28:45;-0.70;99.90
55642;DHT22;41509;53.108;6.100;2023-02-08T00:31:11;-0.70;99.90
55642;DHT22;41509;53.108;6.100;2023-02-08T00:33:37;-0.80;99.90
55642;DHT22;41509;53.108;6.100;2023-02-08T00:36:04;-0.70;99.90
55642;DHT22;41509;53.108;6.100;2023-02-08T00:38:30;-0.80;99.90
55642;DHT22;41509;53.108;6.100;2023-02-08T00:40:56;-0.80;99.90
55642;DHT22;41509;53.108;6.100;2023-02-08T00:43:22;-0.80;99.90
55642;DHT22;41509;53.108;6.100;2023-02-08T00:45:55;-0.80;99.90
55642;DHT22;41509;53.108;6.100;2023-02-08T00:48:21;-0.80;99.90
55642;DHT22;41509;53.108;6.100;2023-02-08T00:51:07;-0.80;99.90
55642;DHT22;41509;53.108;6.100;2023-02-08T00:53:37;-0.80;99.90
55642;DHT22;41509;53.108;6.100;2023-02-08T00:56:04;-0.80;99.90
55642;DHT22;41509;53.108;6.100;2023-02-08T00:58:29;-0.80;99.90
55642;DHT22;41509;53.108;6.100;2023-02-08T01:00:55;-0.80;99.90
55642;DHT22;41509;53.108;6.100;2023-02-08T01:03:22;-0.90;99.90
55642;DHT22;41509;53.108;6.100;2023-02-08T01:05:48;-0.90;99.90
55642;DHT22;41509;53.108;6.100;2023-02-08T01:08:14;-0.90;99.90
55642;DHT22;41509;53.108;6.100;2023-02-08T01:10:40;-0.90;99.90
55642;DHT22;41509;53.108;6.100;2023-02-08T01:13:05;-0.90;99.90
55642;DHT22;41509;53.108;6.100;2023-02-08T01:15:31;-0.90;99.90
55642;DHT22;41509;53.108;6.100;2023-02-08T01:17:57;-0.90;99.90
55642;DHT22;41509;53.108;6.100;2023-02-08T01:20:23;-0.90;99.90
55642;DHT22;41509;53.108;6.100;2023-02-08T01:22:49;-0.90;99.90
55642;DHT22;41509;53.108;6.100;2023-02-08T01:25:15;-0.90;99.90
55642;DHT22;41509;53.108;6.100;2023-02-08T01:27:41;-0.90;99.90
55642;DHT22;41509;53.108;6.100;2023-02-08T01:30:07;-0.90;99.90
55642;DHT22;41509;53.108;6.100;2023-02-08T01:32:33;-0.90;99.90
55642;DHT22;41509;53.108;6.100;2023-02-08T01:34:59;-0.90;99.90
55642;DHT22;41509;53.108;6.100;2023-02-08T01:37:27;-1.00;99.90
55642;DHT22;41509;53.108;6.100;2023-02-08T01:39:53;-0.90;99.90
55642;DHT22;41509;53.108;6.100;2023-02-08T01:42:18;-1.00;99.90
55642;DHT22;41509;53.108;6.100;2023-02-08T01:47:43;-1.00;99.90
55642;DHT22;41509;53.108;6.100;2023-02-08T01:50:09;-1.00;99.90
55642;DHT22;41509;53.108;6.100;2023-02-08T01:52:36;-1.00;99.90
55642;DHT22;41509;53.108;6.100;2023-02-08T01:55:08;-1.00;99.90
55642;DHT22;41509;53.108;6.100;2023-02-08T01:57:35;-1.00;99.90
55642;DHT22;41509;53.108;6.100;2023-02-08T02:00:06;-1.00;99.90
55642;DHT22;41509;53.108;6.100;2023-02-08T02:02:33;-1.00;99.90
55642;DHT22;41509;53.108;6.100;2023-02-08T02:05:00;-1.00;99.90
55642;DHT22;41509;53.108;6.100;2023-02-08T02:07:28;-1.00;99.90
55642;DHT22;41509;53.108;6.100;2023-02-08T02:10:07;-1.00;99.90
55642;DHT22;41509;53.108;6.100;2023-02-08T02:12:35;-1.00;99.90
55642;DHT22;41509;53.108;6.100;2023-02-08T02:15:02;-1.00;99.90
55642;DHT22;41509;53.108;6.100;2023-02-08T02:17:27;-1.00;99.90
55642;DHT22;41509;53.108;6.100;2023-02-08T02:25:29;-1.10;99.90
55642;DHT22;41509;53.108;6.100;2023-02-08T02:39:37;-1.10;99.90
55642;DHT22;41509;53.108;6.100;2023-02-08T02:42:35;-1.10;99.90
55642;DHT22;41509;53.108;6.100;2023-02-08T02:45:47;-1.10;99.90
55642;DHT22;41509;53.108;6.100;2023-02-08T02:48:19;-1.10;99.90
55642;DHT22;41509;53.108;6.100;2023-02-08T02:50:48;-1.10;99.90
55642;DHT22;41509;53.108;6.100;2023-02-08T02:53:27;-1.10;99.90
55642;DHT22;41509;53.108;6.100;2023-02-08T02:56:04;-1.10;99.90
55642;DHT22;41509;53.108;6.100;2023-02-08T02:58:31;-1.10;99.90
55642;DHT22;41509;53.108;6.100;2023-02-08T03:00:57;-1.10;99.90
55642;DHT22;41509;53.108;6.100;2023-02-08T03:03:26;-1.20;99.90
55642;DHT22;41509;53.108;6.100;2023-02-08T03:05:59;-1.10;99.90
55642;DHT22;41509;53.108;6.100;2023-02-08T03:11:26;-1.20;99.90
55642;DHT22;41509;53.108;6.100;2023-02-08T03:14:12;-1.20;99.90
55642;DHT22;41509;53.108;6.100;2023-02-08T03:19:29;-1.20;99.90
55642;DHT22;41509;53.108;6.100;2023-02-08T03:21:56;-1.20;99.90
55642;DHT22;41509;53.108;6.100;2023-02-08T03:27:22;-1.20;99.90
55642;DHT22;41509;53.108;6.100;2023-02-08T03:29:58;-1.20;99.90
55642;DHT22;41509;53.108;6.100;2023-02-08T03:38:05;-1.30;99.90
55642;DHT22;41509;53.108;6.100;2023-02-08T03:40:44;-1.20;99.90
55642;DHT22;41509;53.108;6.100;2023-02-08T03:43:17;-1.30;99.90
55642;DHT22;41509;53.108;6.100;2023-02-08T03:45:50;-1.30;99.90
55642;DHT22;41509;53.108;6.100;2023-02-08T03:48:18;-1.30;99.90
55642;DHT22;41509;53.108;6.100;2023-02-08T03:50:49;-1.30;99.90
55642;DHT22;41509;53.108;6.100;2023-02-08T03:53:19;-1.30;99.90
55642;DHT22;41509;53.108;6.100;2023-02-08T03:55:48;-1.30;99.90
55642;DHT22;41509;53.108;6.100;2023-02-08T03:58:21;-1.30;99.90
55642;DHT22;41509;53.108;6.100;2023-02-08T04:00:53;-1.30;99.90
55642;DHT22;41509;53.108;6.100;2023-02-08T04:03:23;-1.40;99.90
55642;DHT22;41509;53.108;6.100;2023-02-08T04:05:49;-1.30;99.90
55642;DHT22;41509;53.108;6.100;2023-02-08T04:08:15;-1.30;99.90
55642;DHT22;41509;53.108;6.100;2023-02-08T04:10:41;-1.30;99.90
55642;DHT22;41509;53.108;6.100;2023-02-08T04:13:06;-1.40;99.90
55642;DHT22;41509;53.108;6.100;2023-02-08T04:15:32;-1.40;99.90
55642;DHT22;41509;53.108;6.100;2023-02-08T04:17:58;-1.40;99.90
55642;DHT22;41509;53.108;6.100;2023-02-08T04:20:23;-1.40;99.90
55642;DHT22;41509;53.108;6.100;2023-02-08T04:22:49;-1.40;99.90
55642;DHT22;41509;53.108;6.100;2023-02-08T04:25:15;-1.40;99.90
55642;DHT22;41509;53.108;6.100;2023-02-08T04:27:40;-1.40;99.90
55642;DHT22;41509;53.108;6.100;2023-02-08T04:30:06;-1.40;99.90
55642;DHT22;41509;53.108;6.100;2023-02-08T04:32:32;-1.40;99.90
55642;DHT22;41509;53.108;6.100;2023-02-08T04:34:58;-1.40;99.90
55642;DHT22;41509;53.108;6.100;2023-02-08T04:37:23;-1.40;99.90
55642;DHT22;41509;53.108;6.100;2023-02-08T04:39:49;-1.40;99.90
55642;DHT22;41509;53.108;6.100;2023-02-08T04:42:15;-1.40;99.90
55642;DHT22;41509;53.108;6.100;2023-02-08T04:44:41;-1.50;99.90
55642;DHT22;41509;53.108;6.100;2023-02-08T04:47:07;-1.50;99.90
55642;DHT22;41509;53.108;6.100;2023-02-08T04:49:32;-1.50;99.90
55642;DHT22;41509;53.108;6.100;2023-02-08T04:51:58;-1.50;99.90
55642;DHT22;41509;53.108;6.100;2023-02-08T04:54:23;-1.50;99.90
55642;DHT22;41509;53.108;6.100;2023-02-08T04:56:49;-1.50;99.90
55642;DHT22;41509;53.108;6.100;2023-02-08T04:59:15;-1.50;99.90
55642;DHT22;41509;53.108;6.100;2023-02-08T05:01:41;-1.50;99.90
55642;DHT22;41509;53.108;6.100;2023-02-08T05:04:06;-1.50;99.90
55642;DHT22;41509;53.108;6.100;2023-02-08T05:06:32;-1.50;99.90
55642;DHT22;41509;53.108;6.100;2023-02-08T05:08:58;-1.50;99.90
55642;DHT22;41509;53.108;6.100;2023-02-08T05:11:24;-1.50;99.90
55642;DHT22;41509;53.108;6.100;2023-02-08T05:13:50;-1.50;99.90
55642;DHT22;41509;53.108;6.100;2023-02-08T05:16:16;-1.50;99.90
55642;DHT22;41509;53.108;6.100;2023-02-08T05:18:42;-1.50;99.90
55642;DHT22;41509;53.108;6.100;2023-02-08T05:21:08;-1.50;99.90
55642;DHT22;41509;53.108;6.100;2023-02-08T05:23:35;-1.60;99.90
55642;DHT22;41509;53.108;6.100;2023-02-08T05:26:05;-1.60;99.90
55642;DHT22;41509;53.108;6.100;2023-02-08T05:28:31;-1.60;99.90
55642;DHT22;41509;53.108;6.100;2023-02-08T05:30:56;-1.60;99.90
55642;DHT22;41509;53.108;6.100;2023-02-08T05:33:22;-1.60;99.90
55642;DHT22;41509;53.108;6.100;2023-02-08T05:35:47;-1.60;99.90
55642;DHT22;41509;53.108;6.100;2023-02-08T05:38:13;-1.60;99.90
55642;DHT22;41509;53.108;6.100;2023-02-08T05:40:39;-1.60;99.90
55642;DHT22;41509;53.108;6.100;2023-02-08T05:43:04;-1.60;99.90
55642;DHT22;41509;53.108;6.100;2023-02-08T05:45:30;-1.60;99.90
55642;DHT22;41509;53.108;6.100;2023-02-08T05:47:56;-1.60;99.90
55642;DHT22;41509;53.108;6.100;2023-02-08T05:50:21;-1.70;99.90
55642;DHT22;41509;53.108;6.100;2023-02-08T05:52:47;-1.60;99.90
55642;DHT22;41509;53.108;6.100;2023-02-08T05:55:13;-1.70;99.90
55642;DHT22;41509;53.108;6.100;2023-02-08T05:57:38;-1.60;99.90
55642;DHT22;41509;53.108;6.100;2023-02-08T06:00:04;-1.70;99.90
55642;DHT22;41509;53.108;6.100;2023-02-08T06:02:31;-1.70;99.90
55642;DHT22;41509;53.108;6.100;2023-02-08T06:04:57;-1.60;99.90
55642;DHT22;41509;53.108;6.100;2023-02-08T06:07:22;-1.60;99.90
55642;DHT22;41509;53.108;6.100;2023-02-08T06:09:48;-1.70;99.90
55642;DHT22;41509;53.108;6.100;2023-02-08T06:12:14;-1.70;99.90
55642;DHT22;41509;53.108;6.100;2023-02-08T06:14:39;-1.60;99.90
55642;DHT22;41509;53.108;6.100;2023-02-08T06:17:05;-1.70;99.90
55642;DHT22;41509;53.108;6.100;2023-02-08T06:19:30;-1.70;99.90
55642;DHT22;41509;53.108;6.100;2023-02-08T06:21:56;-1.70;99.90
55642;DHT22;41509;53.108;6.100;2023-02-08T06:24:21;-1.70;99.90
55642;DHT22;41509;53.108;6.100;2023-02-08T06:26:47;-1.70;99.90
55642;DHT22;41509;53.108;6.100;2023-02-08T06:29:13;-1.70;99.90
55642;DHT22;41509;53.108;6.100;2023-02-08T06:31:38;-1.60;99.90
55642;DHT22;41509;53.108;6.100;2023-02-08T06:34:04;-1.60;99.90
55642;DHT22;41509;53.108;6.100;2023-02-08T06:36:29;-1.70;99.90
55642;DHT22;41509;53.108;6.100;2023-02-08T06:38:55;-1.60;99.90
55642;DHT22;41509;53.108;6.100;2023-02-08T06:41:21;-1.70;99.90
55642;DHT22;41509;53.108;6.100;2023-02-08T06:43:46;-1.70;99.90
55642;DHT22;41509;53.108;6.100;2023-02-08T06:46:12;-1.70;99.90
55642;DHT22;41509;53.108;6.100;2023-02-08T06:48:37;-1.70;99.90
55642;DHT22;41509;53.108;6.100;2023-02-08T06:51:03;-1.70;99.90
55642;DHT22;41509;53.108;6.100;2023-02-08T06:53:29;-1.70;99.90
55642;DHT22;41509;53.108;6.100;2023-02-08T06:55:55;-1.70;99.90
55642;DHT22;41509;53.108;6.100;2023-02-08T06:58:21;-1.70;99.90
55642;DHT22;41509;53.108;6.100;2023-02-08T07:00:46;-1.70;99.90
55642;DHT22;41509;53.108;6.100;2023-02-08T07:03:13;-1.70;99.90
55642;DHT22;41509;53.108;6.100;2023-02-08T07:05:40;-1.70;99.90
55642;DHT22;41509;53.108;6.100;2023-02-08T07:08:06;-1.70;99.90
55642;DHT22;41509;53.108;6.100;2023-02-08T07:10:32;-1.70;99.90
55642;DHT22;41509;53.108;6.100;2023-02-08T07:12:58;-1.70;99.90
55642;DHT22;41509;53.108;6.100;2023-02-08T07:15:24;-1.70;99.90
55642;DHT22;41509;53.108;6.100;2023-02-08T07:17:49;-1.70;99.90
55642;DHT22;41509;53.108;6.100;2023-02-08T07:20:15;-1.70;99.90
55642;DHT22;41509;53.108;6.100;2023-02-08T07:22:41;-1.70;99.90
55642;DHT22;41509;53.108;6.100;2023-02-08T07:25:07;-1.70;99.90
55642;DHT22;41509;53.108;6.100;2023-02-08T07:27:33;-1.60;99.90
55642;DHT22;41509;53.108;6.100;2023-02-08T07:29:59;-1.70;99.90
55642;DHT22;41509;53.108;6.100;2023-02-08T07:32:25;-1.60;99.90
55642;DHT22;41509;53.108;6.100;2023-02-08T07:34:51;-1.60;99.90
55642;DHT22;41509;53.108;6.100;2023-02-08T07:37:17;-1.60;99.90
55642;DHT22;41509;53.108;6.100;2023-02-08T07:39:42;-1.60;99.90
55642;DHT22;41509;53.108;6.100;2023-02-08T07:42:09;-1.60;99.90
55642;DHT22;41509;53.108;6.100;2023-02-08T07:44:38;-1.50;99.90
55642;DHT22;41509;53.108;6.100;2023-02-08T07:47:04;-1.50;99.90
55642;DHT22;41509;53.108;6.100;2023-02-08T07:49:30;-1.50;99.90
55642;DHT22;41509;53.108;6.100;2023-02-08T07:51:58;-1.40;99.90
55642;DHT22;41509;53.108;6.100;2023-02-08T07:54:23;-1.40;99.90
55642;DHT22;41509;53.108;6.100;2023-02-08T07:56:49;-1.40;99.90
55642;DHT22;41509;53.108;6.100;2023-02-08T07:59:14;-1.30;99.90
55642;DHT22;41509;53.108;6.100;2023-02-08T08:01:40;-1.40;99.90
55642;DHT22;41509;53.108;6.100;2023-02-08T08:04:06;-1.30;99.90
55642;DHT22;41509;53.108;6.100;2023-02-08T08:06:32;-1.20;99.90
55642;DHT22;41509;53.108;6.100;2023-02-08T08:08:58;-1.20;99.90
55642;DHT22;41509;53.108;6.100;2023-02-08T08:11:23;-1.10;99.90
55642;DHT22;41509;53.108;6.100;2023-02-08T08:13:49;-1.10;99.90
55642;DHT22;41509;53.108;6.100;2023-02-08T08:18:44;-1.00;99.90
55642;DHT22;41509;53.108;6.100;2023-02-08T08:21:10;-1.00;99.90
55642;DHT22;41509;53.108;6.100;2023-02-08T08:23:35;-1.00;99.90
55642;DHT22;41509;53.108;6.100;2023-02-08T08:26:13;-0.90;99.90
55642;DHT22;41509;53.108;6.100;2023-02-08T08:28:40;-0.90;99.90
55642;DHT22;41509;53.108;6.100;2023-02-08T08:31:15;-0.80;99.90
55642;DHT22;41509;53.108;6.100;2023-02-08T08:33:40;-0.80;99.90
55642;DHT22;41509;53.108;6.100;2023-02-08T08:36:07;-0.70;99.90
55642;DHT22;41509;53.108;6.100;2023-02-08T08:38:33;-0.70;99.90
55642;DHT22;41509;53.108;6.100;2023-02-08T08:40:59;-0.60;99.90
55642;DHT22;41509;53.108;6.100;2023-02-08T08:43:25;-0.60;99.90
55642;DHT22;41509;53.108;6.100;2023-02-08T08:45:50;-0.50;99.90
55642;DHT22;41509;53.108;6.100;2023-02-08T08:48:16;-0.40;99.90
55642;DHT22;41509;53.108;6.100;2023-02-08T08:50:42;-0.40;99.90
55642;DHT22;41509;53.108;6.100;2023-02-08T08:53:08;-0.30;99.90
55642;DHT22;41509;53.108;6.100;2023-02-08T08:55:34;-0.20;99.90
55642;DHT22;41509;53.108;6.100;2023-02-08T08:57:59;-0.20;99.90
55642;DHT22;41509;53.108;6.100;2023-02-08T09:00:25;-0.10;99.90
55642;DHT22;41509;53.108;6.100;2023-02-08T09:02:51;0.00;99.90
55642;DHT22;41509;53.108;6.100;2023-02-08T09:05:17;0.10;99.90
55642;DHT22;41509;53.108;6.100;2023-02-08T09:07:43;0.20;99.90
55642;DHT22;41509;53.108;6.100;2023-02-08T09:10:08;0.30;99.90
55642;DHT22;41509;53.108;6.100;2023-02-08T09:12:34;0.40;99.90
55642;DHT22;41509;53.108;6.100;2023-02-08T09:14:59;0.40;99.90
55642;DHT22;41509;53.108;6.100;2023-02-08T09:17:25;0.40;99.90
55642;DHT22;41509;53.108;6.100;2023-02-08T09:19:51;0.50;99.90
55642;DHT22;41509;53.108;6.100;2023-02-08T09:22:16;0.60;99.90
55642;DHT22;41509;53.108;6.100;2023-02-08T09:24:43;0.60;99.90
55642;DHT22;41509;53.108;6.100;2023-02-08T09:27:08;0.70;99.90
55642;DHT22;41509;53.108;6.100;2023-02-08T09:29:34;0.80;99.90
55642;DHT22;41509;53.108;6.100;2023-02-08T09:32:00;0.90;99.90
55642;DHT22;41509;53.108;6.100;2023-02-08T09:34:26;1.00;99.90
55642;DHT22;41509;53.108;6.100;2023-02-08T09:36:52;1.10;99.90
55642;DHT22;41509;53.108;6.100;2023-02-08T09:39:23;1.20;99.90
55642;DHT22;41509;53.108;6.100;2023-02-08T09:44:58;1.40;99.90
55642;DHT22;41509;53.108;6.100;2023-02-08T09:47:40;1.50;99.90
55642;DHT22;41509;53.108;6.100;2023-02-08T09:50:19;1.60;99.90
55642;DHT22;41509;53.108;6.100;2023-02-08T09:55:28;1.80;99.90
55642;DHT22;41509;53.108;6.100;2023-02-08T09:57:57;1.90;99.90
55642;DHT22;41509;53.108;6.100;2023-02-08T10:00:33;2.00;99.90
55642;DHT22;41509;53.108;6.100;2023-02-08T10:03:00;2.10;99.90
55642;DHT22;41509;53.108;6.100;2023-02-08T10:05:29;2.20;99.90
55642;DHT22;41509;53.108;6.100;2023-02-08T10:07:55;2.30;99.90
55642;DHT22;41509;53.108;6.100;2023-02-08T10:13:02;2.60;99.90
55642;DHT22;41509;53.108;6.100;2023-02-08T10:15:50;2.70;99.90
55642;DHT22;41509;53.108;6.100;2023-02-08T10:24:00;3.10;99.90
55642;DHT22;41509;53.108;6.100;2023-02-08T10:26:44;3.20;99.90
55642;DHT22;41509;53.108;6.100;2023-02-08T10:31:58;3.50;99.90
55642;DHT22;41509;53.108;6.100;2023-02-08T10:34:43;3.60;99.90
55642;DHT22;41509;53.108;6.100;2023-02-08T10:37:19;3.70;99.90
55642;DHT22;41509;53.108;6.100;2023-02-08T10:39:46;3.90;99.90
55642;DHT22;41509;53.108;6.100;2023-02-08T10:42:21;4.00;99.90
55642;DHT22;41509;53.108;6.100;2023-02-08T10:45:17;4.20;99.90
55642;DHT22;41509;53.108;6.100;2023-02-08T10:47:49;4.30;99.90
55642;DHT22;41509;53.108;6.100;2023-02-08T10:52:59;4.50;99.90
55642;DHT22;41509;53.108;6.100;2023-02-08T10:55:25;4.60;99.90
55642;DHT22;41509;53.108;6.100;2023-02-08T10:57:56;4.70;99.90
55642;DHT22;41509;53.108;6.100;2023-02-08T11:00:29;4.80;99.90
55642;DHT22;41509;53.108;6.100;2023-02-08T11:02:57;4.90;99.90
55642;DHT22;41509;53.108;6.100;2023-02-08T11:08:04;5.20;99.90
55642;DHT22;41509;53.108;6.100;2023-02-08T11:10:30;5.30;99.90
55642;DHT22;41509;53.108;6.100;2023-02-08T11:15:55;5.40;99.90
55642;DHT22;41509;53.108;6.100;2023-02-08T11:18:30;5.40;99.90
55642;DHT22;41509;53.108;6.100;2023-02-08T11:21:05;5.40;99.90
55642;DHT22;41509;53.108;6.100;2023-02-08T11:23:35;5.50;99.90
55642;DHT22;41509;53.108;6.100;2023-02-08T11:28:40;5.60;99.90
55642;DHT22;41509;53.108;6.100;2023-02-08T11:31:18;5.70;99.90
55642;DHT22;41509;53.108;6.100;2023-02-08T11:36:28;5.80;99.90
55642;DHT22;41509;53.108;6.100;2023-02-08T11:38:55;5.90;99.90
55642;DHT22;41509;53.108;6.100;2023-02-08T11:41:21;6.00;99.90
55642;DHT22;41509;53.108;6.100;2023-02-08T11:46:24;6.20;99.90
55642;DHT22;41509;53.108;6.100;2023-02-08T11:48:51;6.30;99.90
55642;DHT22;41509;53.108;6.100;2023-02-08T11:51:34;6.40;99.90
55642;DHT22;41509;53.108;6.100;2023-02-08T11:54:01;6.50;99.90
55642;DHT22;41509;53.108;6.100;2023-02-08T11:56:29;6.60;99.90
55642;DHT22;41509;53.108;6.100;2023-02-08T11:59:02;6.60;99.90
55642;DHT22;41509;53.108;6.100;2023-02-08T12:01:31;6.70;99.90
55642;DHT22;41509;53.108;6.100;2023-02-08T12:04:00;6.80;99.90
55642;DHT22;41509;53.108;6.100;2023-02-08T12:11:46;7.00;96.30
55642;DHT22;41509;53.108;6.100;2023-02-08T12:20:14;7.30;99.90
55642;DHT22;41509;53.108;6.100;2023-02-08T12:29:13;7.50;97.10
55642;DHT22;41509;53.108;6.100;2023-02-08T12:31:57;7.50;93.10
55642;DHT22;41509;53.108;6.100;2023-02-08T12:34:51;7.50;96.00
55642;DHT22;41509;53.108;6.100;2023-02-08T12:37:42;7.60;94.20
55642;DHT22;41509;53.108;6.100;2023-02-08T12:43:42;7.70;94.00
55642;DHT22;41509;53.108;6.100;2023-02-08T12:54:57;8.10;89.90
55642;DHT22;41509;53.108;6.100;2023-02-08T12:57:23;8.20;95.40
55642;DHT22;41509;53.108;6.100;2023-02-08T12:59:58;8.20;93.90
55642;DHT22;41509;53.108;6.100;2023-02-08T13:05:23;8.30;92.20
55642;DHT22;41509;53.108;6.100;2023-02-08T13:07:57;8.40;89.80
55642;DHT22;41509;53.108;6.100;2023-02-08T13:10:39;8.40;89.50
55642;DHT22;41509;53.108;6.100;2023-02-08T13:15:47;8.50;76.00
55642;DHT22;41509;53.108;6.100;2023-02-08T13:18:52;8.60;82.80
55642;DHT22;41509;53.108;6.100;2023-02-08T13:21:29;8.60;69.20
55642;DHT22;41509;53.108;6.100;2023-02-08T13:23:57;8.60;73.80
55642;DHT22;41509;53.108;6.100;2023-02-08T13:26:28;8.60;76.80
55642;DHT22;41509;53.108;6.100;2023-02-08T13:28:58;8.60;74.50
55642;DHT22;41509;53.108;6.100;2023-02-08T13:31:27;8.60;76.40
55642;DHT22;41509;53.108;6.100;2023-02-08T13:34:13;8.60;74.60
55642;DHT22;41509;53.108;6.100;2023-02-08T13:36:49;8.60;76.00
55642;DHT22;41509;53.108;6.100;2023-02-08T13:39:42;8.60;72.50
55642;DHT22;41509;53.108;6.100;2023-02-08T13:44:49;8.70;68.10
55642;DHT22;41509;53.108;6.100;2023-02-08T13:47:24;8.80;72.30
55642;DHT22;41509;53.108;6.100;2023-02-08T13:49:55;8.80;72.50
55642;DHT22;41509;53.108;6.100;2023-02-08T14:03:30;8.90;70.50
55642;DHT22;41509;53.108;6.100;2023-02-08T14:05:58;8.90;72.80
55642;DHT22;41509;53.108;6.100;2023-02-08T14:14:15;8.80;69.50
55642;DHT22;41509;53.108;6.100;2023-02-08T14:24:41;8.80;71.80
55642;DHT22;41509;53.108;6.100;2023-02-08T14:27:37;8.80;69.00
55642;DHT22;41509;53.108;6.100;2023-02-08T14:32:38;8.70;69.20
55642;DHT22;41509;53.108;6.100;2023-02-08T14:35:17;8.60;67.80
55642;DHT22;41509;53.108;6.100;2023-02-08T14:37:45;8.60;66.60
55642;DHT22;41509;53.108;6.100;2023-02-08T14:45:27;8.30;67.50
55642;DHT22;41509;53.108;6.100;2023-02-08T14:47:56;8.20;66.70
55642;DHT22;41509;53.108;6.100;2023-02-08T14:50:26;8.30;66.30
55642;DHT22;41509;53.108;6.100;2023-02-08T14:52:55;8.30;66.60
55642;DHT22;41509;53.108;6.100;2023-02-08T14:55:25;8.20;66.70
55642;DHT22;41509;53.108;6.100;2023-02-08T14:57:53;8.10;68.90
55642;DHT22;41509;53.108;6.100;2023-02-08T15:00:24;8.00;67.10
55642;DHT22;41509;53.108;6.100;2023-02-08T15:02:51;7.90;67.30
55642;DHT22;41509;53.108;6.100;2023-02-08T15:05:25;7.90;67.80
55642;DHT22;41509;53.108;6.100;2023-02-08T15:07:58;7.80;66.00
55642;DHT22;41509;53.108;6.100;2023-02-08T15:10:28;7.70;65.00
55642;DHT22;41509;53.108;6.100;2023-02-08T15:13:04;7.50;64.40
55642;DHT22;41509;53.108;6.100;2023-02-08T15:15:42;7.40;65.80
55642;DHT22;41509;53.108;6.100;2023-02-08T15:18:22;7.30;66.90
55642;DHT22;41509;53.108;6.100;2023-02-08T15:21:12;7.20;65.50
55642;DHT22;41509;53.108;6.100;2023-02-08T15:23:39;7.10;63.20
55642;DHT22;41509;53.108;6.100;2023-02-08T15:26:19;7.00;65.60
55642;DHT22;41509;53.108;6.100;2023-02-08T15:28:45;6.90;65.20
55642;DHT22;41509;53.108;6.100;2023-02-08T15:31:20;6.80;64.40
55642;DHT22;41509;53.108;6.100;2023-02-08T15:33:47;6.70;62.70
55642;DHT22;41509;53.108;6.100;2023-02-08T15:36:30;6.60;64.70
55642;DHT22;41509;53.108;6.100;2023-02-08T15:39:00;6.60;65.30
55642;DHT22;41509;53.108;6.100;2023-02-08T15:41:31;6.50;65.70
55642;DHT22;41509;53.108;6.100;2023-02-08T15:44:20;6.40;65.10
55642;DHT22;41509;53.108;6.100;2023-02-08T15:46:48;6.30;63.10
55642;DHT22;41509;53.108;6.100;2023-02-08T15:49:33;6.30;65.40
55642;DHT22;41509;53.108;6.100;2023-02-08T15:52:00;6.10;65.60
55642;DHT22;41509;53.108;6.100;2023-02-08T15:54:26;6.00;65.70
55642;DHT22;41509;53.108;6.100;2023-02-08T15:56:59;6.00;63.10
55642;DHT22;41509;53.108;6.100;2023-02-08T15:59:29;5.90;66.00
55642;DHT22;41509;53.108;6.100;2023-02-08T16:01:58;5.90;67.30
55642;DHT22;41509;53.108;6.100;2023-02-08T16:04:26;5.80;66.90
55642;DHT22;41509;53.108;6.100;2023-02-08T16:06:56;5.70;67.60
55642;DHT22;41509;53.108;6.100;2023-02-08T16:09:26;5.70;68.60
55642;DHT22;41509;53.108;6.100;2023-02-08T16:11:55;5.60;69.20
55642;DHT22;41509;53.108;6.100;2023-02-08T16:14:23;5.50;69.20
55642;DHT22;41509;53.108;6.100;2023-02-08T16:16:54;5.40;69.00
55642;DHT22;41509;53.108;6.100;2023-02-08T16:19:24;5.40;69.70
55642;DHT22;41509;53.108;6.100;2023-02-08T16:21:51;5.30;69.80
55642;DHT22;41509;53.108;6.100;2023-02-08T16:24:26;5.20;69.90
55642;DHT22;41509;53.108;6.100;2023-02-08T16:31:59;5.00;71.20
55642;DHT22;41509;53.108;6.100;2023-02-08T16:34:26;4.90;71.30
55642;DHT22;41509;53.108;6.100;2023-02-08T16:36:52;4.90;71.40
55642;DHT22;41509;53.108;6.100;2023-02-08T16:39:52;4.80;71.80
55642;DHT22;41509;53.108;6.100;2023-02-08T16:45:13;4.60;71.80
55642;DHT22;41509;53.108;6.100;2023-02-08T16:47:53;4.60;73.30
55642;DHT22;41509;53.108;6.100;2023-02-08T16:50:25;4.50;73.50
55642;DHT22;41509;53.108;6.100;2023-02-08T16:52:59;4.40;73.80
55642;DHT22;41509;53.108;6.100;2023-02-08T16:55:26;4.30;74.50
55642;DHT22;41509;53.108;6.100;2023-02-08T16:57:54;4.30;75.80
55642;DHT22;41509;53.108;6.100;2023-02-08T17:02:48;4.20;76.90
55642;DHT22;41509;53.108;6.100;2023-02-08T17:05:15;4.10;77.60
55642;DHT22;41509;53.108;6.100;2023-02-08T17:07:41;4.10;76.80
55642;DHT22;41509;53.108;6.100;2023-02-08T17:10:11;4.00;77.40
55642;DHT22;41509;53.108;6.100;2023-02-08T17:12:38;3.90;77.70
55642;DHT22;41509;53.108;6.100;2023-02-08T17:15:04;3.80;78.50
55642;DHT22;41509;53.108;6.100;2023-02-08T17:17:30;3.80;79.20
55642;DHT22;41509;53.108;6.100;2023-02-08T17:19:55;3.80;79.10
55642;DHT22;41509;53.108;6.100;2023-02-08T17:22:21;3.70;79.60
55642;DHT22;41509;53.108;6.100;2023-02-08T17:24:47;3.70;80.40
55642;DHT22;41509;53.108;6.100;2023-02-08T17:27:13;3.60;80.30
55642;DHT22;41509;53.108;6.100;2023-02-08T17:29:39;3.60;81.20
55642;DHT22;41509;53.108;6.100;2023-02-08T17:32:05;3.50;82.30
55642;DHT22;41509;53.108;6.100;2023-02-08T17:34:30;3.40;82.90
55642;DHT22;41509;53.108;6.100;2023-02-08T17:36:56;3.40;84.10
55642;DHT22;41509;53.108;6.100;2023-02-08T17:39:22;3.30;84.00
55642;DHT22;41509;53.108;6.100;2023-02-08T17:41:47;3.30;84.10
55642;DHT22;41509;53.108;6.100;2023-02-08T17:44:13;3.30;84.00
55642;DHT22;41509;53.108;6.100;2023-02-08T17:46:40;3.20;84.80
55642;DHT22;41509;53.108;6.100;2023-02-08T17:49:05;3.20;85.10
55642;DHT22;41509;53.108;6.100;2023-02-08T17:51:31;3.10;85.70
55642;DHT22;41509;53.108;6.100;2023-02-08T17:54:02;3.10;86.60
55642;DHT22;41509;53.108;6.100;2023-02-08T17:56:29;3.00;86.60
55642;DHT22;41509;53.108;6.100;2023-02-08T17:58:59;3.00;87.80
55642;DHT22;41509;53.108;6.100;2023-02-08T18:01:28;3.00;88.00
55642;DHT22;41509;53.108;6.100;2023-02-08T18:03:54;2.90;88.70
55642;DHT22;41509;53.108;6.100;2023-02-08T18:06:21;2.90;89.30
55642;DHT22;41509;53.108;6.100;2023-02-08T18:08:48;2.80;89.00
55642;DHT22;41509;53.108;6.100;2023-02-08T18:11:15;2.80;89.90
55642;DHT22;41509;53.108;6.100;2023-02-08T18:13:42;2.70;90.20
55642;DHT22;41509;53.108;6.100;2023-02-08T18:16:13;2.60;90.40
55642;DHT22;41509;53.108;6.100;2023-02-08T18:18:39;2.60;90.40
55642;DHT22;41509;53.108;6.100;2023-02-08T18:21:17;2.60;90.70